MDT,Max TemperatureF,Mean TemperatureF,Min TemperatureF,Max Dew PointF,MeanDew PointF,Min DewpointF,Max Humidity, Mean Humidity, Min Humidity, Max Sea Level PressureIn, Mean Sea Level PressureIn, Min Sea Level PressureIn, Max VisibilityMiles, Mean VisibilityMiles, Min VisibilityMiles, Max Wind SpeedMPH, Mean Wind SpeedMPH, Max Gust SpeedMPH,PrecipitationIn, CloudCover, Events, WindDirDegrees
2012-10-1,75,60,44,45,33,30,63,46,24,30.40,30.30,30.18,10,10,10,12,8,,0.00,0,,309
2012-10-2,75,58,42,37,30,21,66,44,17,30.16,30.08,29.96,10,10,10,16,9,26,0.00,0,,300
2012-10-3,57,46,35,25,20,5,52,41,12,30.27,30.09,29.98,10,10,7,15,8,25,0.00,0,,330
2012-10-4,57,44,30,28,18,16,56,45,21,30.27,30.20,30.06,10,10,10,128,10,16,0.00,1,,305
2012-10-5,53,40,26,25,17,12,59,46,26,30.27,30.22,30.16,10,10,10,17,7,17,0.00,0,,321
2012-10-6,51,38,26,19,17,12,60,47,26,30.29,30.25,30.19,10,10,7,10,7,,0.00,0,,311
2012-10-7,59,44,28,21,15,12,52,41,19,30.26,30.20,30.10,10,10,10,14,9,16,0.00,0,,313
2012-10-8,66,49,32,19,14,12,48,35,14,30.12,30.05,29.92,10,10,10,13,10,,0.00,0,,312
2012-10-9,64,50,35,28,16,10,42,32,19,30.12,30.06,29.99,10,10,10,12,9,,0.00,0,,309
2012-10-10,69,52,35,32,21,19,52,39,18,30.12,30.07,29.96,10,10,10,16,10,,0.00,0,,313
2012-10-11,69,55,41,32,23,18,45,36,18,30.06,30.01,29.97,10,10,10,14,7,,0.00,1,,308
2012-10-12,71,56,42,39,28,23,58,43,27,30.00,29.96,29.87,10,10,10,15,10,25,0.00,2,,309
2012-10-13,66,55,44,36,30,27,66,45,26,30.29,30.07,29.96,10,10,10,14,9,20,0.00,2,,315
2012-10-14,64,52,41,39,33,27,70,55,35,30.37,30.29,30.19,10,10,10,15,8,,0.00,1,,319
2012-10-15,64,53,42,39,35,32,70,59,37,30.18,30.10,30.02,10,10,10,16,7,25,0.00,3,,310
2012-10-16,59,50,41,52,37,12,100,64,17,30.03,29.92,29.75,10,9,3,29,6,44,0.00,5,Rain,254
2012-10-17,55,42,30,25,17,10,65,43,26,30.24,30.13,30.04,10,10,10,15,8,22,0.00,0,,315
2012-10-18,55,44,32,28,20,12,75,49,26,30.34,30.28,30.22,10,10,10,10,6,,0.00,0,,314
2012-10-19,60,48,35,39,31,27,75,63,31,30.21,30.08,29.89,10,10,10,12,8,16,0.00,3,,313
2012-10-20,57,47,37,39,33,19,81,59,27,29.88,29.81,29.76,10,10,10,13,4,25,0.00,6,,323
2012-10-21,51,42,33,32,25,23,75,57,37,29.87,29.83,29.81,10,10,10,13,6,,0.00,2,,306
2012-10-22,41,36,32,39,32,28,100,83,70,29.82,29.74,29.65,10,8,2,18,8,,0.00,5,Rain,300
2012-10-23,37,32,26,34,27,21,100,86,56,29.97,29.84,29.73,10,8,0,15,4,18,0.00,4,Snow,303
2012-10-24,37,28,19,30,19,12,93,72,45,30.07,30.00,29.97,10,10,2,14,11,,0.00,2,Snow,317
2012-10-25,42,34,26,30,24,18,100,78,42,30.37,30.17,30.06,10,10,10,12,4,18,0.00,3,,316
2012-10-26,37,28,19,28,20,12,93,73,52,30.42,30.33,30.16,10,10,2,14,8,17,0.00,3,Snow,320
2012-10-27,46,35,24,32,27,21,93,79,50,30.16,30.13,30.10,10,10,10,12,7,,0.00,3,,324
2012-10-28,60,46,33,46,37,32,100,87,45,30.13,30.11,30.07,10,10,7,12,6,,0.00,6,,307
2012-10-29,62,50,39,45,38,28,100,74,29,30.22,30.14,30.11,10,10,10,14,7,,0.00,2,,300
2012-10-30,62,48,35,36,33,32,87,67,32,30.23,30.19,30.12,10,10,10,14,9,,0.00,1,,304
2012-10-31,66,52,39,34,33,32,81,65,28,30.17,30.11,29.98,10,10,10,14,10,20,0.00,2,,307